Kiamichi, Oklahoma
Current Conditions -  °F | °C
As of 8:35 PM on Sunday 25 Jan 2015 (Local Time) from KRKR Reporting Station
Scattered Clouds Scattered Clouds  
Wind Chill: 41°   Ceiling: Unl
Heat Index: 46°   Visibility: 10mi
Dew Point: 31°   Wind: 12mph
Humidity: 55%   Direction: 350°N
Pressure: 30.08"   Gusts: 20mph
Location:  34.5987°N, 94.9886°W
Report Text: KRKR 260235Z AUTO 35010G17KT 10SM SCT047 08/M01 A3008 RMK AO2 T00801006
Loading
Personal Weather Stations






























Interactive Weather Map New forecast layout! Learn more

10-Day Weather Forecast

Advertisements
Track Severe Weather on mobile